createdAt,value
2017-02-22T00:00:11.996Z,4.57
2017-02-22T00:03:16.297Z,4.57
2017-02-22T00:06:18.429Z,4.57
2017-02-22T00:09:19.055Z,4.60
2017-02-22T00:12:29.242Z,4.62
2017-02-22T00:15:35.189Z,4.65
2017-02-22T00:21:46.424Z,4.66
2017-02-22T00:24:51.307Z,4.64
2017-02-22T00:27:53.976Z,4.62
2017-02-22T00:30:59.149Z,4.60
2017-02-22T00:34:03.748Z,4.59
2017-02-22T00:40:10.948Z,4.61
2017-02-22T00:43:08.189Z,4.61
2017-02-22T00:46:23.781Z,4.59
2017-02-22T00:49:26.484Z,4.58
2017-02-22T00:52:31.725Z,4.58
2017-02-22T00:55:28.581Z,4.58
2017-02-22T00:58:41.872Z,4.58
2017-02-22T01:01:47.319Z,4.59
2017-02-22T01:04:43.576Z,4.60
2017-02-22T01:07:57.419Z,4.62
2017-02-22T01:11:02.568Z,4.64
2017-02-22T01:14:08.596Z,4.65
2017-02-22T01:17:11.750Z,4.67
2017-02-22T01:20:09.592Z,4.68
2017-02-22T01:23:24.337Z,4.71
2017-02-22T01:26:26.831Z,4.75
2017-02-22T01:29:32.071Z,4.76
2017-02-22T01:32:30.149Z,4.77
2017-02-22T01:35:42.882Z,4.79
2017-02-22T01:38:47.882Z,4.81
2017-02-22T01:41:52.412Z,4.82
2017-02-22T01:44:57.409Z,4.84
2017-02-22T01:47:57.436Z,4.85
2017-02-22T01:51:07.848Z,4.87
2017-02-22T01:54:13.183Z,4.90
2017-02-22T01:57:20.039Z,4.93
2017-02-22T02:00:24.537Z,4.97
2017-02-22T02:03:27.730Z,5.01
2017-02-22T04:12:49.261Z,5.84
2017-02-22T04:18:55.256Z,5.89
2017-02-22T04:21:52.546Z,5.91
2017-02-22T04:24:58.434Z,5.97
2017-02-22T04:28:12.226Z,5.98
2017-02-22T04:31:17.355Z,6.02
2017-02-22T04:34:22.627Z,6.09
2017-02-22T04:37:19.761Z,6.15
2017-02-22T04:40:34.732Z,6.22
2017-02-22T04:43:30.432Z,6.29
2017-02-22T04:46:45.124Z,6.37
2017-02-22T04:52:53.101Z,6.48
2017-02-22T04:59:03.121Z,6.58
2017-02-22T05:02:08.407Z,6.63
2017-02-22T05:05:08.644Z,6.70
2017-02-22T05:08:19.506Z,6.73
2017-02-22T05:11:16.497Z,6.79
2017-02-22T05:14:30.420Z,6.82
2017-02-22T05:17:35.591Z,6.84
2017-02-22T05:20:41.019Z,6.89
2017-02-22T05:23:46.428Z,6.91
2017-02-22T05:26:50.980Z,6.93
2017-02-22T05:29:48.225Z,6.96
2017-02-22T05:33:01.698Z,6.97
2017-02-22T05:39:11.591Z,7.10
2017-02-22T05:42:18.970Z,7.11
2017-02-22T05:45:21.845Z,7.12
2017-02-22T05:48:27.286Z,7.23
2017-02-22T05:51:25.450Z,7.36
2017-02-22T05:57:46.299Z,7.54
2017-02-22T06:03:45.851Z,7.71
2017-02-22T06:13:11.797Z,7.96
2017-02-22T06:16:14.283Z,8.08
2017-02-22T06:19:19.730Z,8.15
2017-02-22T06:22:25.073Z,8.20
2017-02-22T06:28:36.373Z,8.40
2017-02-22T06:31:41.334Z,8.43
2017-02-22T06:34:46.892Z,8.42
2017-02-22T06:40:58.887Z,8.52
2017-02-22T06:44:01.213Z,8.57
2017-02-22T06:47:06.746Z,8.57
2017-02-22T06:50:07.049Z,8.56
2017-02-22T06:53:17.458Z,8.56
2017-02-22T06:56:22.991Z,8.60
2017-02-22T06:59:28.185Z,8.61
2017-02-22T07:02:33.791Z,8.62
2017-02-22T07:05:39.164Z,8.63
2017-02-22T07:08:40.189Z,8.69
2017-02-22T07:11:47.116Z,8.71
2017-02-22T07:14:50.092Z,8.73
2017-02-22T07:17:55.054Z,8.79
2017-02-22T07:20:55.276Z,8.78
2017-02-22T07:24:00.196Z,8.73
2017-02-22T07:30:14.457Z,8.62
2017-02-22T07:33:16.010Z,8.61
2017-02-22T07:36:25.747Z,8.66
2017-02-22T07:39:31.175Z,8.72
2017-02-22T07:42:36.548Z,8.75
2017-02-22T07:45:41.942Z,8.74
2017-02-22T07:48:47.232Z,8.75
2017-02-22T07:51:52.889Z,8.78
2017-02-22T07:54:54.582Z,8.78
2017-02-22T07:57:54.529Z,8.80
2017-02-22T08:04:01.297Z,8.88
2017-02-22T08:07:15.193Z,8.84
2017-02-22T08:16:29.302Z,8.90
2017-02-22T08:19:34.671Z,8.89
2017-02-22T08:22:40.609Z,8.87
2017-02-22T08:25:35.499Z,8.87
2017-02-22T08:28:49.171Z,8.86
2017-02-22T08:31:49.631Z,8.84
2017-02-22T08:35:00.318Z,8.82
2017-02-22T08:38:05.695Z,8.83
2017-02-22T08:41:11.006Z,8.84
2017-02-22T08:47:20.837Z,8.88
2017-02-22T09:02:42.327Z,8.92
2017-02-22T10:19:18.295Z,9.00
2017-02-22T10:25:28.470Z,9.04
2017-02-22T10:31:37.318Z,9.07
2017-02-22T11:17:38.591Z,9.90
2017-02-22T11:20:43.930Z,9.95
2017-02-22T11:23:43.983Z,9.93
2017-02-22T11:26:54.797Z,9.72
2017-02-22T11:29:59.316Z,9.62
2017-02-22T11:32:57.957Z,9.61
2017-02-22T11:36:12.144Z,9.88
2017-02-22T11:42:15.141Z,10.11
2017-02-22T11:45:27.911Z,10.07
2017-02-22T11:48:33.305Z,10.03
2017-02-22T11:51:38.708Z,9.81
2017-02-22T11:54:39.018Z,9.63
2017-02-22T11:57:49.688Z,9.53
2017-02-22T12:03:50.931Z,9.43
2017-02-22T12:10:10.465Z,9.33
2017-02-22T12:13:18.353Z,9.30
2017-02-22T12:16:15.276Z,9.29
2017-02-22T12:19:18.087Z,9.27
2017-02-22T12:22:24.091Z,9.30
2017-02-22T12:25:37.997Z,9.34
2017-02-22T12:28:43.054Z,9.35
2017-02-22T12:31:48.403Z,9.36
2017-02-22T12:34:45.922Z,9.40
2017-02-22T12:37:59.877Z,9.37
2017-02-22T12:41:05.049Z,9.35
2017-02-22T12:44:10.160Z,9.33
2017-02-22T12:47:10.680Z,9.37
2017-02-22T13:48:47.717Z,9.18
2017-02-22T13:51:42.060Z,9.17
2017-02-22T13:54:55.160Z,9.12
2017-02-22T13:58:00.442Z,9.01
2017-02-22T14:01:05.818Z,8.89
2017-02-22T14:04:11.281Z,8.87
2017-02-22T14:07:16.311Z,8.82
2017-02-22T14:10:21.809Z,8.76
2017-02-22T14:13:18.988Z,8.75
2017-02-22T14:16:33.031Z,8.70
2017-02-22T14:19:38.241Z,8.70
2017-02-22T14:22:43.153Z,8.72
2017-02-22T16:56:12.948Z,6.91
2017-02-22T18:49:48.641Z,6.27
2017-02-22T19:29:36.433Z,6.31
2017-02-22T20:00:18.459Z,6.17
2017-02-22T20:03:23.342Z,6.18
2017-02-22T20:06:28.560Z,6.20
2017-02-22T20:09:33.355Z,6.18
2017-02-22T20:12:38.602Z,6.18
2017-02-22T20:15:43.705Z,6.18
2017-02-22T20:18:44.043Z,6.18
2017-02-22T20:21:49.557Z,6.16
2017-02-22T20:25:00.418Z,6.15
2017-02-22T20:28:05.868Z,6.17
2017-02-22T20:31:03.142Z,6.18
2017-02-22T20:34:17.045Z,6.21
2017-02-22T20:37:22.118Z,6.21
2017-02-22T20:40:27.149Z,6.23
2017-02-22T20:43:32.486Z,6.24
2017-02-22T20:49:43.680Z,6.27
2017-02-22T20:55:52.449Z,6.26
2017-02-22T20:58:57.915Z,6.28
2017-02-22T21:01:54.460Z,6.29
2017-02-22T21:05:08.279Z,6.31
2017-02-22T21:08:13.435Z,6.32
2017-02-22T21:11:18.599Z,6.31
2017-02-22T21:14:15.717Z,6.33
2017-02-22T21:17:24.740Z,6.32
2017-02-22T21:20:35.451Z,6.32
2017-02-22T21:23:40.764Z,6.34
2017-02-22T21:26:45.428Z,6.34
2017-02-22T21:29:50.512Z,6.36
2017-02-22T21:32:47.643Z,6.35
2017-02-22T21:35:56.644Z,6.34
2017-02-22T21:39:07.304Z,6.34
2017-02-22T21:42:12.466Z,6.36
2017-02-22T21:45:17.607Z,6.38
2017-02-22T21:48:22.604Z,6.36
2017-02-22T21:51:22.792Z,6.37
2017-02-22T21:54:32.990Z,6.35
2017-02-22T21:57:38.281Z,6.33
2017-02-22T22:00:43.739Z,6.35
2017-02-22T22:03:40.889Z,6.34
2017-02-22T22:10:00.374Z,6.35
2017-02-22T22:16:11.423Z,6.31
2017-02-22T22:19:16.537Z,6.30
2017-02-22T22:22:14.808Z,6.32
2017-02-22T22:25:27.726Z,6.34
2017-02-22T22:28:32.483Z,6.33
2017-02-22T22:31:37.736Z,6.31
2017-02-22T22:34:42.034Z,6.33
2017-02-22T22:37:47.298Z,6.35
2017-02-22T22:40:44.323Z,6.35
2017-02-22T22:44:00.112Z,6.32
2017-02-22T22:47:02.846Z,6.30
2017-02-22T22:50:07.786Z,6.33
2017-02-22T22:53:13.186Z,6.37
2017-02-22T22:59:22.671Z,6.35
2017-02-22T23:02:27.896Z,6.36
2017-02-22T23:05:28.427Z,6.33
2017-02-22T23:08:38.805Z,6.32
2017-02-22T23:11:44.302Z,6.32
2017-02-22T23:14:49.060Z,6.34
2017-02-22T23:17:45.990Z,6.35
2017-02-22T23:20:59.660Z,6.36
2017-02-22T23:24:03.752Z,6.35
2017-02-22T23:27:08.769Z,6.35
2017-02-22T23:30:06.873Z,6.35
2017-02-22T23:33:19.562Z,6.33
2017-02-22T23:48:41.345Z,6.29
2017-02-22T23:51:46.290Z,6.30
2017-02-22T23:54:51.547Z,6.28
2017-02-22T23:57:51.648Z,6.29
